Time,TemperatureF,DewpointF,PressureIn,WindDirection,WindDirectionDegrees,WindSpeedMPH,WindSpeedGustMPH,Humidity,HourlyPrecipIn,Conditions,Clouds,dailyrainin,SoftwareType,DateUTC
2013-03-29 00:02:00,46.6,32.6,30.21,South,171,5.8,5.8,58,0.00,,,0.00,WeatherDisplay:10.37,2013-03-29 05:02:00,
2013-03-29 00:07:00,46.8,32.8,30.21,SE,127,4.6,4.6,58,0.00,,,0.00,WeatherDisplay:10.37,2013-03-29 05:07:00,
2013-03-29 00:12:00,46.9,32.9,30.21,SSE,152,6.3,6.3,58,0.00,,,0.00,WeatherDisplay:10.37,2013-03-29 05:12:00,
2013-03-29 00:17:00,46.9,32.9,30.21,ESE,123,5.8,5.8,58,0.00,,,0.00,WeatherDisplay:10.37,2013-03-29 05:17:00,
2013-03-29 00:22:00,46.8,32.8,30.21,SSE,160,8.1,8.1,58,0.00,,,0.00,WeatherDisplay:10.37,2013-03-29 05:22:00,
2013-03-29 00:27:00,46.6,32.6,30.21,SSW,196,5.8,5.8,58,0.00,,,0.00,WeatherDisplay:10.37,2013-03-29 05:27:00,
2013-03-29 00:33:00,46.4,32.4,30.21,ESE,104,5.8,5.8,58,0.00,,,0.00,WeatherDisplay:10.37,2013-03-29 05:33:00,
2013-03-29 00:38:00,46.2,32.2,30.21,East,100,4.6,4.6,58,0.00,,,0.00,WeatherDisplay:10.37,2013-03-29 05:38:00,
2013-03-29 00:43:00,46.2,32.2,30.21,SE,146,5.8,5.8,58,0.00,,,0.00,WeatherDisplay:10.37,2013-03-29 05:43:00,
2013-03-29 00:48:00,46.2,32.2,30.21,SSE,154,5.8,5.8,58,0.00,,,0.00,WeatherDisplay:10.37,2013-03-29 05:48:00,
2013-03-29 00:53:00,46.0,32.1,30.21,SSE,148,6.3,6.3,58,0.00,,,0.00,WeatherDisplay:10.37,2013-03-29 05:53:00,
2013-03-29 00:58:00,45.9,31.9,30.21,South,177,5.8,5.8,58,0.00,,,0.00,WeatherDisplay:10.37,2013-03-29 05:58:00,
2013-03-29 01:03:00,45.9,33.2,30.21,WSW,238,5.8,5.8,61,0.00,,,0.00,WeatherDisplay:10.37,2013-03-29 06:03:00,
2013-03-29 01:08:00,45.7,33.0,30.21,South,185,5.8,5.8,61,0.00,,,0.00,WeatherDisplay:10.37,2013-03-29 06:08:00,
2013-03-29 01:13:00,45.5,32.8,30.21,ESE,107,4.6,4.6,61,0.00,,,0.00,WeatherDisplay:10.37,2013-03-29 06:13:00,
2013-03-29 01:18:00,45.1,33.7,30.21,South,179,5.9,5.9,64,0.00,,,0.00,WeatherDisplay:10.37,2013-03-29 06:18:00,
2013-03-29 01:23:00,45.1,34.5,30.21,SW,232,5.8,5.8,66,0.00,,,0.00,WeatherDisplay:10.37,2013-03-29 06:23:00,
2013-03-29 01:28:00,45.1,34.5,30.21,SE,145,5.8,5.8,66,0.00,,,0.00,WeatherDisplay:10.37,2013-03-29 06:28:00,
2013-03-29 01:33:00,45.1,34.5,30.21,ESE,111,8.1,8.1,66,0.00,,,0.00,WeatherDisplay:10.37,2013-03-29 06:33:00,
2013-03-29 01:38:00,45.1,33.7,30.21,SE,143,8.1,8.1,64,0.00,,,0.00,WeatherDisplay:10.37,2013-03-29 06:38:00,
2013-03-29 01:43:00,45.1,33.7,30.21,SSE,155,5.8,5.8,64,0.00,,,0.00,WeatherDisplay:10.37,2013-03-29 06:43:00,
2013-03-29 01:48:00,45.1,33.7,30.21,South,175,10.4,10.4,64,0.00,,,0.00,WeatherDisplay:10.37,2013-03-29 06:48:00,
2013-03-29 01:53:00,45.0,33.5,30.21,SSE,149,5.8,5.8,64,0.00,,,0.00,WeatherDisplay:10.37,2013-03-29 06:53:00,
2013-03-29 01:58:00,45.1,33.7,30.21,SSE,148,9.2,9.2,64,0.00,,,0.00,WeatherDisplay:10.37,2013-03-29 06:58:00,
2013-03-29 02:03:00,45.1,33.7,30.21,SSW,206,8.1,8.1,64,0.00,,,0.00,WeatherDisplay:10.37,2013-03-29 07:03:00,
2013-03-29 02:08:00,45.0,33.5,30.21,ESE,107,5.8,5.8,64,0.00,,,0.00,WeatherDisplay:10.37,2013-03-29 07:08:00,
2013-03-29 02:13:00,45.0,33.5,30.21,SSE,158,6.9,6.9,64,0.00,,,0.00,WeatherDisplay:10.37,2013-03-29 07:13:00,
2013-03-29 02:18:00,44.8,34.1,30.21,SSE,155,5.8,5.8,66,0.00,,,0.00,WeatherDisplay:10.37,2013-03-29 07:18:00,
2013-03-29 02:23:00,44.8,34.1,30.18,East,101,4.6,4.6,66,0.00,,,0.00,WeatherDisplay:10.37,2013-03-29 07:23:00,
2013-03-29 02:28:00,44.8,35.2,30.18,ESE,108,4.6,0.0,69,0.00,,,0.00,WeatherDisplay:10.37,2013-03-29 07:28:00,
2013-03-29 02:33:00,44.6,35.1,30.18,SSE,160,6.3,6.3,69,0.00,,,0.00,WeatherDisplay:10.37,2013-03-29 07:33:00,
2013-03-29 02:38:00,44.4,34.9,30.18,SE,134,8.1,8.1,69,0.00,,,0.00,WeatherDisplay:10.37,2013-03-29 07:38:00,
2013-03-29 02:43:00,44.4,34.9,30.18,East,100,8.1,8.1,69,0.00,,,0.00,WeatherDisplay:10.37,2013-03-29 07:43:00,
2013-03-29 02:48:00,44.2,35.4,30.18,SE,146,8.1,8.1,71,0.00,,,0.00,WeatherDisplay:10.37,2013-03-29 07:48:00,
2013-03-29 02:53:00,44.1,35.6,30.18,South,185,6.9,6.9,72,0.00,,,0.00,WeatherDisplay:10.37,2013-03-29 07:53:00,
2013-03-29 02:58:00,44.1,35.6,30.18,South,181,6.3,6.3,72,0.00,,,0.00,WeatherDisplay:10.37,2013-03-29 07:58:00,
2013-03-29 03:03:00,43.9,35.4,30.18,SSW,201,5.8,5.8,72,0.00,,,0.00,WeatherDisplay:10.37,2013-03-29 08:03:00,
2013-03-29 03:08:00,43.7,35.3,30.18,South,184,5.9,5.9,72,0.00,,,0.00,WeatherDisplay:10.37,2013-03-29 08:08:00,
2013-03-29 03:13:00,43.5,35.1,30.18,SE,125,4.6,4.6,72,0.00,,,0.00,WeatherDisplay:10.37,2013-03-29 08:13:00,
2013-03-29 03:18:00,43.3,35.3,30.18,SE,133,6.9,6.9,73,0.00,,,0.00,WeatherDisplay:10.37,2013-03-29 08:18:00,
2013-03-29 03:23:00,43.2,35.4,30.18,SE,144,5.8,5.8,74,0.00,,,0.00,WeatherDisplay:10.37,2013-03-29 08:23:00,
2013-03-29 03:28:00,43.2,35.4,30.18,SE,127,5.8,5.8,74,0.00,,,0.00,WeatherDisplay:10.37,2013-03-29 08:28:00,
2013-03-29 03:33:00,42.8,35.1,30.18,SSE,161,6.3,6.3,74,0.00,,,0.00,WeatherDisplay:10.37,2013-03-29 08:33:00,
2013-03-29 03:38:00,43.0,35.3,30.18,SE,142,5.9,5.9,74,0.00,,,0.00,WeatherDisplay:10.37,2013-03-29 08:38:00,
2013-03-29 03:43:00,43.0,35.3,30.18,East,80,4.6,4.6,74,0.00,,,0.00,WeatherDisplay:10.37,2013-03-29 08:43:00,
2013-03-29 03:48:00,43.0,35.3,30.18,SE,143,2.3,0.0,74,0.00,,,0.00,WeatherDisplay:10.37,2013-03-29 08:48:00,
2013-03-29 03:53:00,43.0,35.3,30.18,ESE,118,5.0,5.0,74,0.00,,,0.00,WeatherDisplay:10.37,2013-03-29 08:53:00,
2013-03-29 03:58:00,43.0,35.6,30.18,SSE,160,5.4,5.4,75,0.00,,,0.00,WeatherDisplay:10.37,2013-03-29 08:58:00,
2013-03-29 04:03:00,43.0,35.6,30.18,South,177,3.6,3.6,75,0.00,,,0.00,WeatherDisplay:10.37,2013-03-29 09:03:00,
2013-03-29 04:08:00,42.8,35.4,30.18,SE,125,3.5,3.5,75,0.00,,,0.00,WeatherDisplay:10.37,2013-03-29 09:08:00,
2013-03-29 04:13:00,42.6,35.2,30.18,East,86,4.6,4.6,75,0.00,,,0.00,WeatherDisplay:10.37,2013-03-29 09:13:00,
2013-03-29 04:18:00,42.4,34.7,30.18,SSE,166,6.3,6.3,74,0.00,,,0.00,WeatherDisplay:10.37,2013-03-29 09:18:00,
2013-03-29 04:23:00,42.3,34.9,30.18,ESE,118,2.7,0.0,75,0.00,,,0.00,WeatherDisplay:10.37,2013-03-29 09:23:00,
2013-03-29 04:28:00,42.3,35.2,30.18,SSE,163,4.6,4.6,76,0.00,,,0.00,WeatherDisplay:10.37,2013-03-29 09:28:00,
2013-03-29 04:33:00,42.3,35.6,30.18,South,176,4.6,4.6,77,0.00,,,0.00,WeatherDisplay:10.37,2013-03-29 09:33:00,
2013-03-29 04:38:00,42.3,35.6,30.18,SE,146,4.6,0.0,77,0.00,,,0.00,WeatherDisplay:10.37,2013-03-29 09:38:00,
2013-03-29 04:43:00,42.3,35.6,30.18,SSE,161,4.1,4.1,77,0.00,,,0.00,WeatherDisplay:10.37,2013-03-29 09:43:00,
2013-03-29 04:48:00,42.3,35.6,30.18,SE,125,4.6,4.6,77,0.00,,,0.00,WeatherDisplay:10.37,2013-03-29 09:48:00,
2013-03-29 04:53:00,42.4,35.7,30.18,SE,130,5.8,5.8,77,0.00,,,0.00,WeatherDisplay:10.37,2013-03-29 09:53:00,
2013-03-29 04:58:00,42.4,35.7,30.18,East,89,3.5,3.5,77,0.00,,,0.00,WeatherDisplay:10.37,2013-03-29 09:58:00,
2013-03-29 05:03:00,42.6,35.6,30.18,SE,139,3.5,3.5,76,0.00,,,0.00,WeatherDisplay:10.37,2013-03-29 10:03:00,
2013-03-29 05:08:00,42.6,35.6,30.18,ESE,109,2.3,2.3,76,0.00,,,0.00,WeatherDisplay:10.37,2013-03-29 10:08:00,
2013-03-29 05:13:00,42.6,35.6,30.18,SE,126,3.5,0.0,76,0.00,,,0.00,WeatherDisplay:10.37,2013-03-29 10:13:00,
2013-03-29 05:18:00,42.6,35.6,30.18,East,85,4.6,4.6,76,0.00,,,0.00,WeatherDisplay:10.37,2013-03-29 10:18:00,
2013-03-29 05:23:00,42.6,35.6,30.18,SE,127,4.1,0.0,76,0.00,,,0.00,WeatherDisplay:10.37,2013-03-29 10:23:00,
2013-03-29 05:28:00,42.6,35.6,30.18,SSE,152,4.1,4.1,76,0.00,,,0.00,WeatherDisplay:10.37,2013-03-29 10:28:00,
2013-03-29 05:33:00,42.4,35.4,30.18,SSE,149,3.5,3.5,76,0.00,,,0.00,WeatherDisplay:10.37,2013-03-29 10:33:00,
2013-03-29 05:38:00,42.4,35.4,30.18,ESE,115,4.6,4.6,76,0.00,,,0.00,WeatherDisplay:10.37,2013-03-29 10:38:00,
2013-03-29 05:43:00,42.4,35.4,30.18,SE,143,4.6,4.6,76,0.00,,,0.00,WeatherDisplay:10.37,2013-03-29 10:43:00,
2013-03-29 05:48:00,42.3,35.2,30.18,SE,144,3.5,3.5,76,0.00,,,0.00,WeatherDisplay:10.37,2013-03-29 10:48:00,
2013-03-29 05:53:00,42.3,35.2,30.18,SE,125,3.5,0.0,76,0.00,,,0.00,WeatherDisplay:10.37,2013-03-29 10:53:00,
2013-03-29 05:58:00,42.1,35.4,30.18,SE,141,4.6,4.6,77,0.00,,,0.00,WeatherDisplay:10.37,2013-03-29 10:58:00,
2013-03-29 06:03:00,42.1,35.4,30.18,ESE,112,3.5,3.5,77,0.00,,,0.00,WeatherDisplay:10.37,2013-03-29 11:03:00,
2013-03-29 06:08:00,41.9,35.2,30.18,East,101,5.8,5.8,77,0.00,,,0.00,WeatherDisplay:10.37,2013-03-29 11:08:00,
2013-03-29 06:13:00,41.9,35.2,30.18,SE,142,3.6,0.0,77,0.00,,,0.00,WeatherDisplay:10.37,2013-03-29 11:13:00,
2013-03-29 06:18:00,41.7,35.0,30.18,ESE,117,2.3,0.0,77,0.00,,,0.00,WeatherDisplay:10.37,2013-03-29 11:18:00,
2013-03-29 06:24:00,41.5,35.2,30.18,SSE,151,5.4,0.0,78,0.00,,,0.00,WeatherDisplay:10.37,2013-03-29 11:24:00,
2013-03-29 06:29:00,41.4,35.0,30.18,SE,124,5.8,5.8,78,0.00,,,0.00,WeatherDisplay:10.37,2013-03-29 11:29:00,
2013-03-29 06:34:00,41.4,35.3,30.15,East,95,0.0,0.0,79,0.00,,,0.00,WeatherDisplay:10.37,2013-03-29 11:34:00,
2013-03-29 06:39:00,41.4,35.3,30.15,East,99,0.0,0.0,79,0.00,,,0.00,WeatherDisplay:10.37,2013-03-29 11:39:00,
2013-03-29 06:44:00,41.4,35.3,30.15,SSE,158,3.5,3.5,79,0.00,,,0.00,WeatherDisplay:10.37,2013-03-29 11:44:00,
2013-03-29 06:49:00,41.5,35.5,30.15,SE,140,4.6,4.6,79,0.00,,,0.00,WeatherDisplay:10.37,2013-03-29 11:49:00,
2013-03-29 06:54:00,41.7,36.0,30.15,ESE,115,5.8,5.8,80,0.00,,,0.00,WeatherDisplay:10.37,2013-03-29 11:54:00,
2013-03-29 06:59:00,41.9,36.2,30.15,SE,140,4.6,4.6,80,0.00,,,0.00,WeatherDisplay:10.37,2013-03-29 11:59:00,
2013-03-29 07:04:00,42.1,36.4,30.18,ENE,66,5.8,5.8,80,0.00,,,0.00,WeatherDisplay:10.37,2013-03-29 12:04:00,
2013-03-29 07:09:00,42.1,36.4,30.18,SSE,156,5.4,0.0,80,0.00,,,0.00,WeatherDisplay:10.37,2013-03-29 12:09:00,
2013-03-29 07:14:00,42.1,36.0,30.18,East,93,4.6,4.6,79,0.00,,,0.00,WeatherDisplay:10.37,2013-03-29 12:14:00,
2013-03-29 07:19:00,42.1,36.0,30.18,SE,127,4.6,4.6,79,0.00,,,0.00,WeatherDisplay:10.37,2013-03-29 12:19:00,
2013-03-29 07:24:00,42.3,36.2,30.18,SSE,159,3.5,0.0,79,0.00,,,0.00,WeatherDisplay:10.37,2013-03-29 12:24:00,
2013-03-29 07:29:00,42.3,36.2,30.18,South,170,3.6,3.6,79,0.00,,,0.00,WeatherDisplay:10.37,2013-03-29 12:29:00,
2013-03-29 07:34:00,42.3,35.9,30.18,SE,133,4.6,4.6,78,0.00,,,0.00,WeatherDisplay:10.37,2013-03-29 12:34:00,
2013-03-29 07:39:00,42.3,35.9,30.18,South,171,3.6,3.6,78,0.00,,,0.00,WeatherDisplay:10.37,2013-03-29 12:39:00,
2013-03-29 07:44:00,42.3,35.9,30.18,East,90,2.3,0.0,78,0.00,,,0.00,WeatherDisplay:10.37,2013-03-29 12:44:00,
2013-03-29 07:49:00,42.3,35.9,30.18,SSE,148,2.3,0.0,78,0.00,,,0.00,WeatherDisplay:10.37,2013-03-29 12:49:00,
2013-03-29 07:54:00,42.4,36.1,30.18,East,99,4.6,0.0,78,0.00,,,0.00,WeatherDisplay:10.37,2013-03-29 12:54:00,
2013-03-29 07:59:00,42.4,36.1,30.18,SE,127,0.0,0.0,78,0.00,,,0.00,WeatherDisplay:10.37,2013-03-29 12:59:00,
2013-03-29 08:04:00,42.8,36.4,30.18,SE,132,0.0,0.0,78,0.00,,,0.00,WeatherDisplay:10.37,2013-03-29 13:04:00,
2013-03-29 08:09:00,43.2,36.8,30.18,East,88,3.5,3.5,78,0.00,,,0.00,WeatherDisplay:10.37,2013-03-29 13:09:00,
2013-03-29 08:14:00,43.7,37.3,30.18,SSE,150,3.5,3.5,78,0.00,,,0.00,WeatherDisplay:10.37,2013-03-29 13:14:00,
2013-03-29 08:19:00,43.9,36.5,30.18,SSE,158,3.6,0.0,75,0.00,,,0.00,WeatherDisplay:10.37,2013-03-29 13:19:00,
2013-03-29 08:24:00,44.2,36.5,30.18,SSE,157,4.6,4.6,74,0.00,,,0.00,WeatherDisplay:10.37,2013-03-29 13:24:00,
2013-03-29 08:29:00,45.0,37.2,30.18,East,97,4.1,0.0,74,0.00,,,0.00,WeatherDisplay:10.37,2013-03-29 13:29:00,
2013-03-29 08:34:00,45.5,37.0,30.21,SE,135,4.6,4.6,72,0.00,,,0.00,WeatherDisplay:10.37,2013-03-29 13:34:00,
2013-03-29 08:39:00,46.6,36.6,30.21,South,174,8.1,8.1,68,0.00,,,0.00,WeatherDisplay:10.37,2013-03-29 13:39:00,
2013-03-29 08:44:00,46.9,36.9,30.21,SE,144,6.3,6.3,68,0.00,,,0.00,WeatherDisplay:10.37,2013-03-29 13:44:00,
2013-03-29 08:49:00,46.9,35.0,30.21,SSE,148,5.8,5.8,63,0.00,,,0.00,WeatherDisplay:10.37,2013-03-29 13:49:00,
2013-03-29 08:54:00,47.1,35.2,30.18,SE,137,5.8,5.8,63,0.00,,,0.00,WeatherDisplay:10.37,2013-03-29 13:54:00,
2013-03-29 08:59:00,46.9,35.0,30.18,SE,138,5.8,5.8,63,0.00,,,0.00,WeatherDisplay:10.37,2013-03-29 13:59:00,
2013-03-29 09:04:00,47.7,35.7,30.18,SSE,147,5.8,5.8,63,0.00,,,0.00,WeatherDisplay:10.37,2013-03-29 14:04:00,
2013-03-29 09:09:00,47.7,34.4,30.18,SE,141,5.8,5.8,60,0.00,,,0.00,WeatherDisplay:10.37,2013-03-29 14:09:00,
2013-03-29 09:14:00,48.2,35.0,30.18,SE,128,5.8,5.8,60,0.00,,,0.00,WeatherDisplay:10.37,2013-03-29 14:14:00,
2013-03-29 09:19:00,48.6,35.3,30.18,SE,130,6.9,6.9,60,0.00,,,0.00,WeatherDisplay:10.37,2013-03-29 14:19:00,
2013-03-29 09:24:00,48.6,35.3,30.18,South,179,8.1,8.1,60,0.00,,,0.00,WeatherDisplay:10.37,2013-03-29 14:24:00,
2013-03-29 09:29:00,48.4,35.1,30.18,South,182,6.3,6.3,60,0.00,,,0.00,WeatherDisplay:10.37,2013-03-29 14:29:00,
2013-03-29 09:34:00,48.4,35.1,30.18,SSE,160,6.3,6.3,60,0.00,,,0.00,WeatherDisplay:10.37,2013-03-29 14:34:00,
2013-03-29 09:39:00,49.5,36.1,30.18,SSE,147,5.8,5.8,60,0.00,,,0.00,WeatherDisplay:10.37,2013-03-29 14:39:00,
2013-03-29 09:44:00,50.0,36.7,30.18,ESE,109,5.8,5.8,60,0.00,,,0.00,WeatherDisplay:10.37,2013-03-29 14:44:00,
2013-03-29 09:49:00,50.5,37.2,30.18,SSE,165,5.8,5.8,60,0.00,,,0.00,WeatherDisplay:10.37,2013-03-29 14:49:00,
2013-03-29 09:54:00,50.7,36.0,30.18,WSW,243,5.8,5.8,57,0.00,,,0.00,WeatherDisplay:10.37,2013-03-29 14:54:00,
2013-03-29 09:59:00,52.5,37.7,30.18,SSE,166,4.6,4.6,57,0.00,,,0.00,WeatherDisplay:10.37,2013-03-29 14:59:00,
2013-03-29 10:04:00,52.2,37.4,30.18,SE,133,8.1,8.1,57,0.00,,,0.00,WeatherDisplay:10.37,2013-03-29 15:04:00,
2013-03-29 10:09:00,52.9,38.1,30.18,ESE,107,5.8,5.8,57,0.00,,,0.00,WeatherDisplay:10.37,2013-03-29 15:09:00,
2013-03-29 10:14:00,54.7,39.3,30.18,East,93,4.6,4.6,56,0.00,,,0.00,WeatherDisplay:10.37,2013-03-29 15:14:00,
2013-03-29 10:19:00,55.2,39.8,30.21,NNW,345,3.5,3.5,56,0.00,,,0.00,WeatherDisplay:10.37,2013-03-29 15:19:00,
2013-03-29 10:24:00,55.8,40.3,30.21,ENE,69,4.6,4.6,56,0.00,,,0.00,WeatherDisplay:10.37,2013-03-29 15:24:00,
2013-03-29 10:29:00,57.0,41.5,30.21,SE,132,4.6,4.6,56,0.00,,,0.00,WeatherDisplay:10.37,2013-03-29 15:29:00,
2013-03-29 10:34:00,57.2,41.6,30.21,South,174,5.9,5.9,56,0.00,,,0.00,WeatherDisplay:10.37,2013-03-29 15:34:00,
2013-03-29 10:39:00,57.2,41.6,30.21,ENE,78,5.8,5.8,56,0.00,,,0.00,WeatherDisplay:10.37,2013-03-29 15:39:00,
2013-03-29 10:44:00,57.2,41.6,30.21,East,95,3.2,0.0,56,0.00,,,0.00,WeatherDisplay:10.37,2013-03-29 15:44:00,
2013-03-29 10:49:00,59.0,43.3,30.18,ESE,118,4.6,4.6,56,0.00,,,0.00,WeatherDisplay:10.37,2013-03-29 15:49:00,
2013-03-29 10:54:00,58.6,43.0,30.18,ESE,122,3.5,0.0,56,0.00,,,0.00,WeatherDisplay:10.37,2013-03-29 15:54:00,
2013-03-29 10:59:00,59.0,43.3,30.18,ENE,67,3.5,3.5,56,0.00,,,0.00,WeatherDisplay:10.37,2013-03-29 15:59:00,
2013-03-29 11:04:00,60.1,43.4,30.18,SE,139,4.6,4.6,54,0.00,,,0.00,WeatherDisplay:10.37,2013-03-29 16:04:00,
2013-03-29 11:09:00,60.1,43.4,30.18,SW,224,2.3,0.0,54,0.00,,,0.00,WeatherDisplay:10.37,2013-03-29 16:09:00,
2013-03-29 11:14:00,60.3,43.5,30.18,North,360,3.5,3.5,54,0.00,,,0.00,WeatherDisplay:10.37,2013-03-29 16:14:00,
2013-03-29 11:19:00,60.6,43.9,30.21,SSE,149,5.8,5.8,54,0.00,,,0.00,WeatherDisplay:10.37,2013-03-29 16:19:00,
2013-03-29 11:24:00,60.8,44.0,30.21,ENE,71,4.6,4.6,54,0.00,,,0.00,WeatherDisplay:10.37,2013-03-29 16:24:00,
2013-03-29 11:29:00,60.8,44.0,30.21,SE,143,3.2,3.2,54,0.00,,,0.00,WeatherDisplay:10.37,2013-03-29 16:29:00,
2013-03-29 11:34:00,59.9,43.2,30.21,South,174,3.6,0.0,54,0.00,,,0.00,WeatherDisplay:10.37,2013-03-29 16:34:00,
2013-03-29 11:39:00,60.8,44.0,30.21,North,9,4.6,4.6,54,0.00,,,0.00,WeatherDisplay:10.37,2013-03-29 16:39:00,
2013-03-29 11:44:00,61.7,44.9,30.21,SE,138,4.6,4.6,54,0.00,,,0.00,WeatherDisplay:10.37,2013-03-29 16:44:00,
2013-03-29 11:49:00,62.8,45.9,30.18,East,81,4.6,4.6,54,0.00,,,0.00,WeatherDisplay:10.37,2013-03-29 16:49:00,
2013-03-29 11:54:00,64.0,46.6,30.18,SE,144,5.8,5.8,53,0.00,,,0.00,WeatherDisplay:10.37,2013-03-29 16:54:00,
2013-03-29 12:00:00,63.9,46.4,30.18,North,10,2.7,0.0,53,0.00,,,0.00,WeatherDisplay:10.37,2013-03-29 17:00:00,
2013-03-29 12:05:00,64.0,46.6,30.18,NNE,30,4.6,4.6,53,0.00,,,0.00,WeatherDisplay:10.37,2013-03-29 17:05:00,
2013-03-29 12:10:00,65.5,47.9,30.18,SSE,150,5.0,5.0,53,0.00,,,0.00,WeatherDisplay:10.37,2013-03-29 17:10:00,
2013-03-29 12:15:00,66.2,48.6,30.18,SE,132,4.6,0.0,53,0.00,,,0.00,WeatherDisplay:10.37,2013-03-29 17:15:00,
2013-03-29 12:20:00,67.1,49.4,30.18,East,98,4.6,4.6,53,0.00,,,0.00,WeatherDisplay:10.37,2013-03-29 17:20:00,
2013-03-29 12:25:00,66.4,48.7,30.18,WSW,247,5.8,5.8,53,0.00,,,0.00,WeatherDisplay:10.37,2013-03-29 17:25:00,
2013-03-29 12:30:00,66.7,49.1,30.18,WSW,239,4.6,4.6,53,0.00,,,0.00,WeatherDisplay:10.37,2013-03-29 17:30:00,
2013-03-29 12:35:00,66.2,48.6,30.18,NNE,27,4.6,4.6,53,0.00,,,0.00,WeatherDisplay:10.37,2013-03-29 17:35:00,
2013-03-29 12:40:00,66.2,48.6,30.18,South,176,3.2,3.2,53,0.00,,,0.00,WeatherDisplay:10.37,2013-03-29 17:40:00,
2013-03-29 12:45:00,66.9,49.2,30.18,SSE,152,4.6,4.6,53,0.00,,,0.00,WeatherDisplay:10.37,2013-03-29 17:45:00,
2013-03-29 12:50:00,66.7,49.1,30.18,ESE,118,4.6,4.6,53,0.00,,,0.00,WeatherDisplay:10.37,2013-03-29 17:50:00,
2013-03-29 12:55:00,66.9,49.2,30.18,ESE,112,8.1,8.1,53,0.00,,,0.00,WeatherDisplay:10.37,2013-03-29 17:55:00,
2013-03-29 13:00:00,66.4,48.7,30.18,NE,36,4.6,4.6,53,0.00,,,0.00,WeatherDisplay:10.37,2013-03-29 18:00:00,
2013-03-29 13:05:00,66.2,48.6,30.18,ESE,107,3.5,3.6,53,0.00,,,0.00,WeatherDisplay:10.37,2013-03-29 18:05:00,
2013-03-29 13:10:00,66.7,49.1,30.18,ENE,57,3.5,3.5,53,0.00,,,0.00,WeatherDisplay:10.37,2013-03-29 18:10:00,
2013-03-29 13:15:00,66.9,49.2,30.18,SE,142,3.5,3.5,53,0.00,,,0.00,WeatherDisplay:10.37,2013-03-29 18:15:00,
2013-03-29 13:20:00,67.1,49.4,30.18,East,93,3.5,0.0,53,0.00,,,0.00,WeatherDisplay:10.37,2013-03-29 18:20:00,
2013-03-29 13:25:00,66.4,48.7,30.18,ESE,116,4.6,4.6,53,0.00,,,0.00,WeatherDisplay:10.37,2013-03-29 18:25:00,
2013-03-29 13:30:00,64.8,47.2,30.18,NE,48,5.8,5.8,53,0.00,,,0.00,WeatherDisplay:10.37,2013-03-29 18:30:00,
2013-03-29 13:35:00,65.5,47.9,30.18,ENE,76,5.8,5.8,53,0.00,,,0.00,WeatherDisplay:10.37,2013-03-29 18:35:00,
2013-03-29 13:40:00,66.4,48.7,30.18,East,95,4.1,4.1,53,0.00,,,0.00,WeatherDisplay:10.37,2013-03-29 18:40:00,
2013-03-29 13:45:00,67.8,51.5,30.18,South,179,5.8,5.8,56,0.00,,,0.00,WeatherDisplay:10.37,2013-03-29 18:45:00,
2013-03-29 13:50:00,64.0,46.6,30.18,NE,55,4.6,4.6,53,0.00,,,0.00,WeatherDisplay:10.37,2013-03-29 18:50:00,
2013-03-29 13:55:00,62.8,45.9,30.18,NE,42,5.9,5.9,54,0.00,,,0.00,WeatherDisplay:10.37,2013-03-29 18:55:00,
2013-03-29 14:00:00,64.0,46.6,30.18,ESE,114,4.6,0.0,53,0.00,,,0.00,WeatherDisplay:10.37,2013-03-29 19:00:00,
2013-03-29 14:05:00,66.0,48.4,30.18,SSW,205,8.1,8.1,53,0.00,,,0.00,WeatherDisplay:10.37,2013-03-29 19:05:00,
2013-03-29 14:10:00,65.5,47.9,30.18,ESE,121,5.8,5.8,53,0.00,,,0.00,WeatherDisplay:10.37,2013-03-29 19:10:00,
2013-03-29 14:15:00,65.3,47.7,30.18,ESE,112,3.5,3.5,53,0.00,,,0.00,WeatherDisplay:10.37,2013-03-29 19:15:00,
2013-03-29 14:20:00,64.8,47.2,30.18,ESE,121,4.6,4.6,53,0.00,,,0.00,WeatherDisplay:10.37,2013-03-29 19:20:00,
2013-03-29 14:25:00,64.2,46.7,30.18,SE,134,3.5,3.5,53,0.00,,,0.00,WeatherDisplay:10.37,2013-03-29 19:25:00,
2013-03-29 14:30:00,61.9,45.0,30.18,NW,310,5.8,5.8,54,0.00,,,0.00,WeatherDisplay:10.37,2013-03-29 19:30:00,
2013-03-29 14:35:00,62.1,45.2,30.15,ESE,119,4.6,4.6,54,0.00,,,0.00,WeatherDisplay:10.37,2013-03-29 19:35:00,
2013-03-29 14:40:00,61.7,44.9,30.15,NNE,27,3.6,3.6,54,0.00,,,0.00,WeatherDisplay:10.37,2013-03-29 19:40:00,
2013-03-29 14:45:00,62.4,45.5,30.15,ESE,111,2.3,2.3,54,0.00,,,0.00,WeatherDisplay:10.37,2013-03-29 19:45:00,
2013-03-29 14:50:00,61.3,44.5,30.15,NE,38,3.5,3.5,54,0.00,,,0.00,WeatherDisplay:10.37,2013-03-29 19:50:00,
2013-03-29 14:55:00,60.3,43.5,30.15,SSW,203,5.8,5.8,54,0.00,,,0.00,WeatherDisplay:10.37,2013-03-29 19:55:00,
2013-03-29 15:00:00,60.6,43.9,30.15,ENE,63,3.5,0.0,54,0.00,,,0.00,WeatherDisplay:10.37,2013-03-29 20:00:00,
2013-03-29 15:05:00,60.8,44.0,30.15,ENE,71,4.1,4.1,54,0.00,,,0.00,WeatherDisplay:10.37,2013-03-29 20:05:00,
2013-03-29 15:10:00,60.6,43.9,30.15,East,89,5.0,5.0,54,0.00,,,0.00,WeatherDisplay:10.37,2013-03-29 20:10:00,
2013-03-29 15:15:00,63.0,46.0,30.15,NE,45,4.1,4.1,54,0.00,,,0.00,WeatherDisplay:10.37,2013-03-29 20:15:00,
2013-03-29 15:20:00,64.9,47.4,30.15,ESE,112,4.6,4.6,53,0.00,,,0.00,WeatherDisplay:10.37,2013-03-29 20:20:00,
2013-03-29 15:25:00,65.1,47.6,30.15,ESE,113,4.6,4.6,53,0.00,,,0.00,WeatherDisplay:10.37,2013-03-29 20:25:00,
2013-03-29 15:30:00,65.3,47.7,30.15,East,101,4.6,4.6,53,0.00,,,0.00,WeatherDisplay:10.37,2013-03-29 20:30:00,
2013-03-29 15:35:00,64.9,47.4,30.15,SE,124,4.6,4.6,53,0.00,,,0.00,WeatherDisplay:10.37,2013-03-29 20:35:00,
2013-03-29 15:40:00,64.4,46.9,30.15,ESE,116,3.5,3.5,53,0.00,,,0.00,WeatherDisplay:10.37,2013-03-29 20:40:00,
2013-03-29 15:45:00,63.7,46.2,30.15,South,186,5.0,0.0,53,0.00,,,0.00,WeatherDisplay:10.37,2013-03-29 20:45:00,
2013-03-29 15:50:00,63.5,46.1,30.15,NNE,33,5.8,5.8,53,0.00,,,0.00,WeatherDisplay:10.37,2013-03-29 20:50:00,
2013-03-29 15:55:00,61.0,44.2,30.15,ENE,78,4.1,4.1,54,0.00,,,0.00,WeatherDisplay:10.37,2013-03-29 20:55:00,
2013-03-29 16:00:00,60.1,43.4,30.15,ENE,73,3.5,3.5,54,0.00,,,0.00,WeatherDisplay:10.37,2013-03-29 21:00:00,
2013-03-29 16:05:00,59.5,43.8,30.15,ENE,72,3.5,0.0,56,0.00,,,0.00,WeatherDisplay:10.37,2013-03-29 21:05:00,
2013-03-29 16:10:00,60.8,44.0,30.15,ESE,103,3.5,3.5,54,0.00,,,0.00,WeatherDisplay:10.37,2013-03-29 21:10:00,
2013-03-29 16:15:00,62.8,45.9,30.15,ESE,102,4.6,4.6,54,0.00,,,0.00,WeatherDisplay:10.37,2013-03-29 21:15:00,
2013-03-29 16:20:00,64.2,46.7,30.15,South,169,4.1,0.0,53,0.00,,,0.00,WeatherDisplay:10.37,2013-03-29 21:20:00,
2013-03-29 16:25:00,62.8,45.9,30.15,South,172,9.2,9.2,54,0.00,,,0.00,WeatherDisplay:10.37,2013-03-29 21:25:00,
2013-03-29 16:30:00,64.0,46.6,30.15,ENE,61,4.6,4.6,53,0.00,,,0.00,WeatherDisplay:10.37,2013-03-29 21:30:00,
2013-03-29 16:35:00,63.5,46.1,30.15,NE,50,0.0,0.0,53,0.00,,,0.00,WeatherDisplay:10.37,2013-03-29 21:35:00,
2013-03-29 16:40:00,62.1,45.2,30.15,NE,42,3.5,3.5,54,0.00,,,0.00,WeatherDisplay:10.37,2013-03-29 21:40:00,
2013-03-29 16:45:00,60.3,43.5,30.15,NE,42,0.0,0.0,54,0.00,,,0.00,WeatherDisplay:10.37,2013-03-29 21:45:00,
2013-03-29 16:50:00,60.8,44.0,30.15,SSE,166,4.6,4.6,54,0.00,,,0.00,WeatherDisplay:10.37,2013-03-29 21:50:00,
2013-03-29 16:55:00,60.8,44.0,30.15,ENE,78,0.0,0.0,54,0.00,,,0.00,WeatherDisplay:10.37,2013-03-29 21:55:00,
2013-03-29 17:00:00,61.2,44.4,30.15,SE,146,2.7,0.0,54,0.00,,,0.00,WeatherDisplay:10.37,2013-03-29 22:00:00,
2013-03-29 17:05:00,61.9,45.0,30.15,East,96,5.8,5.8,54,0.00,,,0.00,WeatherDisplay:10.37,2013-03-29 22:05:00,
2013-03-29 17:10:00,62.1,45.2,30.15,ESE,111,5.8,5.8,54,0.00,,,0.00,WeatherDisplay:10.37,2013-03-29 22:10:00,
2013-03-29 17:15:00,62.1,45.2,30.15,ESE,107,4.6,4.6,54,0.00,,,0.00,WeatherDisplay:10.37,2013-03-29 22:15:00,
2013-03-29 17:20:00,60.4,43.7,30.15,ENE,76,2.7,2.7,54,0.00,,,0.00,WeatherDisplay:10.37,2013-03-29 22:20:00,
2013-03-29 17:25:00,59.9,43.2,30.15,ENE,60,3.5,3.5,54,0.00,,,0.00,WeatherDisplay:10.37,2013-03-29 22:25:00,
2013-03-29 17:30:00,59.9,43.2,30.15,NE,40,2.7,0.0,54,0.00,,,0.00,WeatherDisplay:10.37,2013-03-29 22:30:00,
2013-03-29 17:35:00,59.9,43.2,30.15,NE,55,0.0,0.0,54,0.00,,,0.00,WeatherDisplay:10.37,2013-03-29 22:35:00,
2013-03-29 17:40:00,59.7,43.0,30.15,ENE,62,0.0,0.0,54,0.00,,,0.00,WeatherDisplay:10.37,2013-03-29 22:40:00,
2013-03-29 17:45:00,59.5,43.8,30.15,ESE,115,0.0,0.0,56,0.00,,,0.00,WeatherDisplay:10.37,2013-03-29 22:45:00,
2013-03-29 17:50:00,59.9,43.2,30.15,ESE,106,2.7,0.0,54,0.00,,,0.00,WeatherDisplay:10.37,2013-03-29 22:50:00,
2013-03-29 17:55:00,60.1,43.4,30.15,East,95,3.6,3.6,54,0.00,,,0.00,WeatherDisplay:10.37,2013-03-29 22:55:00,
2013-03-29 18:00:00,59.7,43.0,30.15,ENE,57,3.5,3.5,54,0.00,,,0.00,WeatherDisplay:10.37,2013-03-29 23:00:00,
2013-03-29 18:05:00,59.4,43.7,30.15,East,95,3.5,3.5,56,0.00,,,0.00,WeatherDisplay:10.37,2013-03-29 23:05:00,
2013-03-29 18:10:00,59.0,43.3,30.15,ENE,59,3.5,3.5,56,0.00,,,0.00,WeatherDisplay:10.37,2013-03-29 23:10:00,
2013-03-29 18:15:00,58.8,43.1,30.15,ENE,71,0.0,0.0,56,0.00,,,0.00,WeatherDisplay:10.37,2013-03-29 23:15:00,
2013-03-29 18:20:00,58.8,43.1,30.15,ENE,72,0.0,0.0,56,0.00,,,0.00,WeatherDisplay:10.37,2013-03-29 23:20:00,
2013-03-29 18:25:00,58.6,43.0,30.15,East,99,3.5,3.5,56,0.00,,,0.00,WeatherDisplay:10.37,2013-03-29 23:25:00,
2013-03-29 18:30:00,58.3,42.6,30.15,SSE,149,2.3,2.3,56,0.00,,,0.00,WeatherDisplay:10.37,2013-03-29 23:30:00,
2013-03-29 18:35:00,58.1,42.5,30.15,SSE,149,0.0,0.0,56,0.00,,,0.00,WeatherDisplay:10.37,2013-03-29 23:35:00,
2013-03-29 18:40:00,57.7,42.1,30.15,ESE,122,2.3,0.0,56,0.00,,,0.00,WeatherDisplay:10.37,2013-03-29 23:40:00,
2013-03-29 18:45:00,57.6,42.0,30.15,ESE,122,0.0,0.0,56,0.00,,,0.00,WeatherDisplay:10.37,2013-03-29 23:45:00,
2013-03-29 18:50:00,57.2,41.6,30.15,ESE,104,2.7,0.0,56,0.00,,,0.00,WeatherDisplay:10.37,2013-03-29 23:50:00,
2013-03-29 18:55:00,56.8,41.3,30.15,SE,142,0.0,0.0,56,0.00,,,0.00,WeatherDisplay:10.37,2013-03-29 23:55:00,
2013-03-29 19:00:00,56.5,41.0,30.15,SE,142,0.0,0.0,56,0.00,,,0.00,WeatherDisplay:10.37,2013-03-30 00:00:00,
2013-03-29 19:05:00,56.3,40.8,30.15,SE,141,0.0,0.0,56,0.00,,,0.00,WeatherDisplay:10.37,2013-03-30 00:05:00,
2013-03-29 19:10:00,55.9,40.5,30.15,ENE,67,0.0,0.0,56,0.00,,,0.00,WeatherDisplay:10.37,2013-03-30 00:10:00,
2013-03-29 19:15:00,55.6,40.1,30.15,East,90,0.0,0.0,56,0.00,,,0.00,WeatherDisplay:10.37,2013-03-30 00:15:00,
2013-03-29 19:20:00,55.0,39.6,30.15,East,96,0.0,0.0,56,0.00,,,0.00,WeatherDisplay:10.37,2013-03-30 00:20:00,
2013-03-29 19:25:00,54.5,39.1,30.15,East,99,0.0,0.0,56,0.00,,,0.00,WeatherDisplay:10.37,2013-03-30 00:25:00,
2013-03-29 19:30:00,54.0,39.1,30.15,East,99,0.0,0.0,57,0.00,,,0.00,WeatherDisplay:10.37,2013-03-30 00:30:00,
2013-03-29 19:35:00,53.4,38.6,30.15,East,98,0.0,0.0,57,0.00,,,0.00,WeatherDisplay:10.37,2013-03-30 00:35:00,
2013-03-29 19:40:00,53.2,38.4,30.15,East,98,0.0,0.0,57,0.00,,,0.00,WeatherDisplay:10.37,2013-03-30 00:40:00,
2013-03-29 19:45:00,52.9,38.1,30.15,East,99,0.0,0.0,57,0.00,,,0.00,WeatherDisplay:10.37,2013-03-30 00:45:00,
2013-03-29 19:50:00,52.5,37.7,30.15,East,99,0.0,0.0,57,0.00,,,0.00,WeatherDisplay:10.37,2013-03-30 00:50:00,
2013-03-29 19:55:00,52.2,37.4,30.15,East,98,0.0,0.0,57,0.00,,,0.00,WeatherDisplay:10.37,2013-03-30 00:55:00,
2013-03-29 20:00:00,51.8,37.0,30.15,East,98,0.0,0.0,57,0.00,,,0.00,WeatherDisplay:10.37,2013-03-30 01:00:00,
2013-03-29 20:05:00,51.4,36.7,30.15,East,98,0.0,0.0,57,0.00,,,0.00,WeatherDisplay:10.37,2013-03-30 01:05:00,
2013-03-29 20:10:00,51.3,36.5,30.15,East,99,0.0,0.0,57,0.00,,,0.00,WeatherDisplay:10.37,2013-03-30 01:10:00,
2013-03-29 20:15:00,50.9,36.2,30.15,East,99,0.0,0.0,57,0.00,,,0.00,WeatherDisplay:10.37,2013-03-30 01:15:00,
2013-03-29 20:20:00,50.7,36.0,30.15,East,99,0.0,0.0,57,0.00,,,0.00,WeatherDisplay:10.37,2013-03-30 01:20:00,
2013-03-29 20:25:00,50.5,36.3,30.15,East,98,0.0,0.0,58,0.00,,,0.00,WeatherDisplay:10.37,2013-03-30 01:25:00,
2013-03-29 20:30:00,50.2,36.0,30.15,East,99,0.0,0.0,58,0.00,,,0.00,WeatherDisplay:10.37,2013-03-30 01:30:00,
2013-03-29 20:36:00,50.0,35.8,30.15,East,99,0.0,0.0,58,0.00,,,0.00,WeatherDisplay:10.37,2013-03-30 01:36:00,
2013-03-29 20:41:00,49.8,36.5,30.15,East,98,0.0,0.0,60,0.00,,,0.00,WeatherDisplay:10.37,2013-03-30 01:41:00,
2013-03-29 20:46:00,49.5,36.1,30.15,East,99,0.0,0.0,60,0.00,,,0.00,WeatherDisplay:10.37,2013-03-30 01:46:00,
2013-03-29 20:51:00,49.5,36.1,30.18,East,99,0.0,0.0,60,0.00,,,0.00,WeatherDisplay:10.37,2013-03-30 01:51:00,
2013-03-29 20:56:00,49.3,36.0,30.18,East,99,0.0,0.0,60,0.00,,,0.00,WeatherDisplay:10.37,2013-03-30 01:56:00,
2013-03-29 21:02:00,49.1,35.8,30.18,East,99,0.0,0.0,60,0.00,,,0.00,WeatherDisplay:10.37,2013-03-30 02:02:00,
2013-03-29 21:07:00,48.9,35.6,30.18,East,98,0.0,0.0,60,0.00,,,0.00,WeatherDisplay:10.37,2013-03-30 02:07:00,
2013-03-29 21:12:00,48.7,35.5,30.18,East,99,0.0,0.0,60,0.00,,,0.00,WeatherDisplay:10.37,2013-03-30 02:12:00,
2013-03-29 21:17:00,48.6,35.3,30.18,East,99,0.0,0.0,60,0.00,,,0.00,WeatherDisplay:10.37,2013-03-30 02:17:00,
2013-03-29 21:22:00,48.6,35.3,30.18,East,98,0.0,0.0,60,0.00,,,0.00,WeatherDisplay:10.37,2013-03-30 02:22:00,
2013-03-29 21:27:00,48.4,36.4,30.18,East,99,0.0,0.0,63,0.00,,,0.00,WeatherDisplay:10.37,2013-03-30 02:27:00,
2013-03-29 21:32:00,48.2,36.2,30.18,East,99,0.0,0.0,63,0.00,,,0.00,WeatherDisplay:10.37,2013-03-30 02:32:00,
2013-03-29 21:37:00,48.0,36.0,30.18,East,99,0.0,0.0,63,0.00,,,0.00,WeatherDisplay:10.37,2013-03-30 02:37:00,
2013-03-29 21:42:00,47.8,36.6,30.18,East,99,0.0,0.0,65,0.00,,,0.00,WeatherDisplay:10.37,2013-03-30 02:42:00,
2013-03-29 21:47:00,47.7,36.5,30.18,East,99,0.0,0.0,65,0.00,,,0.00,WeatherDisplay:10.37,2013-03-30 02:47:00,
2013-03-29 21:53:00,47.5,37.4,30.18,East,99,0.0,0.0,68,0.00,,,0.00,WeatherDisplay:10.37,2013-03-30 02:53:00,
2013-03-29 21:58:00,47.3,37.3,30.18,East,98,0.0,0.0,68,0.00,,,0.00,WeatherDisplay:10.37,2013-03-30 02:58:00,
2013-03-29 22:03:00,47.1,37.1,30.18,East,99,0.0,0.0,68,0.00,,,0.00,WeatherDisplay:10.37,2013-03-30 03:03:00,
2013-03-29 22:08:00,46.9,36.9,30.18,East,99,0.0,0.0,68,0.00,,,0.00,WeatherDisplay:10.37,2013-03-30 03:08:00,
2013-03-29 22:13:00,46.8,37.9,30.18,East,99,0.0,0.0,71,0.00,,,0.00,WeatherDisplay:10.37,2013-03-30 03:13:00,
2013-03-29 22:18:00,46.8,37.9,30.18,East,99,0.0,0.0,71,0.00,,,0.00,WeatherDisplay:10.37,2013-03-30 03:18:00,
2013-03-29 22:23:00,46.6,38.0,30.18,East,99,0.0,0.0,72,0.00,,,0.00,WeatherDisplay:10.37,2013-03-30 03:23:00,
2013-03-29 22:28:00,46.6,38.0,30.18,ESE,112,0.0,0.0,72,0.00,,,0.00,WeatherDisplay:10.37,2013-03-30 03:28:00,
2013-03-29 22:33:00,46.2,37.7,30.18,ESE,112,0.0,0.0,72,0.00,,,0.00,WeatherDisplay:10.37,2013-03-30 03:33:00,
2013-03-29 22:38:00,46.2,38.0,30.18,ESE,114,0.0,0.0,73,0.00,,,0.00,WeatherDisplay:10.37,2013-03-30 03:38:00,
2013-03-29 22:43:00,46.2,38.0,30.18,ESE,114,0.0,0.0,73,0.00,,,0.00,WeatherDisplay:10.37,2013-03-30 03:43:00,
2013-03-29 22:48:00,45.9,37.7,30.18,ESE,114,0.0,0.0,73,0.00,,,0.00,WeatherDisplay:10.37,2013-03-30 03:48:00,
2013-03-29 22:53:00,45.7,37.5,30.18,ESE,121,0.0,0.0,73,0.00,,,0.00,WeatherDisplay:10.37,2013-03-30 03:53:00,
2013-03-29 22:58:00,45.7,37.5,30.18,ESE,121,0.0,0.0,73,0.00,,,0.00,WeatherDisplay:10.37,2013-03-30 03:58:00,
2013-03-29 23:00:00,45.5,37.3,30.18,SE,143,0.0,0.0,73,0.00,,,0.00,WeatherDisplay:10.37,2013-03-30 04:00:00,
2013-03-29 23:05:00,45.1,37.3,30.18,SSE,159,3.5,0.0,74,0.00,,,0.00,WeatherDisplay:10.37,2013-03-30 04:05:00,
2013-03-29 23:10:00,45.1,37.3,30.18,SSE,159,0.0,0.0,74,0.00,,,0.00,WeatherDisplay:10.37,2013-03-30 04:10:00,
2013-03-29 23:15:00,45.0,37.2,30.18,ESE,119,0.0,0.0,74,0.00,,,0.00,WeatherDisplay:10.37,2013-03-30 04:15:00,
2013-03-29 23:20:00,45.0,37.2,30.18,ESE,119,0.0,0.0,74,0.00,,,0.00,WeatherDisplay:10.37,2013-03-30 04:20:00,
2013-03-29 23:25:00,45.0,37.2,30.18,ESE,119,0.0,0.0,74,0.00,,,0.00,WeatherDisplay:10.37,2013-03-30 04:25:00,
2013-03-29 23:30:00,45.0,37.5,30.18,SE,131,0.0,0.0,75,0.00,,,0.00,WeatherDisplay:10.37,2013-03-30 04:30:00,
2013-03-29 23:35:00,44.8,37.3,30.15,SE,134,0.0,0.0,75,0.00,,,0.00,WeatherDisplay:10.37,2013-03-30 04:35:00,
2013-03-29 23:40:00,44.8,37.3,30.15,SE,134,0.0,0.0,75,0.00,,,0.00,WeatherDisplay:10.37,2013-03-30 04:40:00,
2013-03-29 23:45:00,44.4,37.0,30.15,SE,134,0.0,0.0,75,0.00,,,0.00,WeatherDisplay:10.37,2013-03-30 04:45:00,
2013-03-29 23:50:00,44.1,37.0,30.15,SE,134,0.0,0.0,76,0.00,,,0.00,WeatherDisplay:10.37,2013-03-30 04:50:00,
2013-03-29 23:55:00,43.7,36.6,30.15,SSE,167,3.5,0.0,76,0.00,,,0.00,WeatherDisplay:10.37,2013-03-30 04:55:00,